^^

Nearby METAR Reports

 

LIRH - Frosinone (it-Af, Italy
Distance from station: SO 5km
Dati ricevuti: 12/11/2019 06:55
Mist, Parz. nuvoloso
Mist, Parz. nuvoloso
 Vento da O
Vento: O 6 km/h
Temperatura: 11°C
P.to Rugiada: 10°C
Umidità: 94%
Barometro: 997 hPa
Summary: Mist
Clouds: Parz. nuvoloso
Visibility: 4 km
Cloud details: Parz. nuvoloso 610 m
2019/11/12 05:55 LIRH 120555Z 26003KT 4000 BR SCT020 11/10 Q0997
LIRL - Latina (it-Afb), Italy
Distance from station: OSO 40km
Dati ricevuti: 12/11/2019 06:55
Molto nuvoloso
Molto nuvoloso
 Vento da OSO
Vento: OSO 6 km/h
Temperatura: 12°C
P.to Rugiada: 10°C
Umidità: 88%
Barometro: 995 hPa
Clouds: Molto nuvoloso
Visibility: 10 km
Cloud details: Parz. nuvoloso 1219 m
Molto nuvoloso 2134 m
2019/11/12 05:55 LIRL 120555Z 24003KT 9999 SCT040 BKN070 12/10 Q0995
 
LIRG - Guidonia (it-Afb, Italy
Distance from station: NO 63km
Dati ricevuti: 12/11/2019 06:55
Few Clouds
Few Clouds
 Vento da varies
Vento: varies 0 km/h
Temperatura: 11°C
P.to Rugiada: 10°C
Umidità: 94%
Barometro: 997 hPa
Clouds: Few Clouds
Visibility: 10 km
Cloud details: Few Clouds 1219 m
2019/11/12 05:55 LIRG 120555Z /////KT 9999 FEW040 11/10 Q0997
LIRA - Ciampino(It-Afb/, Italy
Distance from station: ONO 64km
Dati ricevuti: 12/11/2019 07:20
Parz. nuvoloso
Parz. nuvoloso
 Vento da NNE
Vento: NNE 11 km/h
Temperatura: 11°C
P.to Rugiada: 9°C
Umidità: 88%
Barometro: 996 hPa
Clouds: Parz. nuvoloso
Visibility: 10 km
Cloud details: Parz. nuvoloso 1829 m
2019/11/12 06:20 LIRA 120620Z 02006KT 330V040 9999 SCT060 11/09 Q0996
 
LIRU - Roma/Urbe (it-Af, Italy
Distance from station: ONO 76km
Dati ricevuti: 11/11/2019 16:50
Non Attivo
Pioggia, Nuvoloso
Pioggia, Nuvoloso
 Vento da NNE
Vento: NNE 11 km/h
Temperatura: 11°C
P.to Rugiada: 10°C
Umidità: 94%
Barometro: 1009 hPa
Summary: Pioggia
Clouds: Molto nuvoloso
Visibility: 4 km
Cloud details: Molto nuvoloso 1067 m
2019/11/11 15:50 LIRU 111550Z 03006KT 4000 RA BKN035 11/10 Q1009 RETS
LIRE - Pratica Di Mare(, Italy
Distance from station: O 77km
Dati ricevuti: 12/11/2019 06:55
Parz. nuvoloso
Parz. nuvoloso
 Vento da NNE
Vento: NNE 20 km/h
Temperatura: 13°C
P.to Rugiada: 11°C
Umidità: 88%
Barometro: 997 hPa
Clouds: Parz. nuvoloso
Visibility: 10 km
Cloud details: Molto nuvoloso 1219 m
Parz. nuvoloso 2134 m
2019/11/12 05:55 LIRE 120555Z 02011KT 9999 BKN040 SCT070 13/11 Q0997 RMK OVC VIS MIN 9999 WIND THR13 03012KT WIND THR31 02013KT BLU
 
LIQN - Rieti, Italy
Distance from station: NNO 92km
Dati ricevuti: 11/11/2019 16:50
Non Attivo
Pioviggine, Few clouds
Pioviggine, Few clouds
 Vento da varies
Vento: varies 4 km/h
Temperatura: 11°C
P.to Rugiada: 10°C
Umidità: 94%
Barometro: 1009 hPa
Summary: Pioviggine
Clouds: Few Clouds
Visibility: 9 km
Cloud details: Few Clouds 183 m
2019/11/11 15:50 LIQN 111550Z VRB02KT 9000 4000W -RA FEW006 11/10 Q1009
LIRK - Terminillo, Italy
Distance from station: NNO 93km
Dati ricevuti: 12/11/2019 06:55

 Vento da ESE
Vento: ESE 35 km/h, Raffica: 57 km/h
Temperatura: 3°C
Temperatura del Vento: -3°C
P.to Rugiada: 3°C
Umidità: 100%
Barometro: 1001 hPa
2019/11/12 05:55 LIRK 120555Z AUTO 11019G31KT 040V140 //// 03/03 Q1001
 
LIRF - Roma/Fiumicino, Italy
Distance from station: O 94km
Dati ricevuti: 12/11/2019 07:20
Sereno
Sereno
 Vento da NNE
Vento: NNE 7 km/h
Temperatura: 13°C
P.to Rugiada: 10°C
Umidità: 82%
Barometro: 996 hPa
Summary: Sereno
Visibility: greater than 10 km
2019/11/12 06:20 LIRF 120620Z 02004KT 360V060 CAVOK 13/10 Q0996 NOSIG
LIRM - Grazzanise (it-A, Italy
Distance from station: SE 94km
Dati ricevuti: 12/11/2019 06:55
Molto nuvoloso
Molto nuvoloso
 Vento da ENE
Vento: ENE 22 km/h
Temperatura: 15°C
P.to Rugiada: 12°C
Umidità: 82%
Barometro: 995 hPa
Clouds: Molto nuvoloso
Visibility: 10 km
Cloud details: Parz. nuvoloso 1067 m
Molto nuvoloso 2134 m
2019/11/12 05:55 LIRM 120555Z 06012KT 9999 SCT035 BKN070 15/12 Q0995
 
LIBP - Pescara, Italy
Distance from station: NE 108km
Dati ricevuti: 12/11/2019 06:50
Pioviggine, Mist, Coperto
Pioviggine, Mist, Coperto
 Vento da SO
Vento: SO 6 km/h
Temperatura: 11°C
P.to Rugiada: 11°C
Umidità: 100%
Barometro: 1000 hPa
Summary: Pioviggine, Mist
Clouds: Coperto
Visibility: 4 km
Cloud details: Coperto 610 m
2019/11/12 05:50 LIBP 120550Z AUTO 22003KT 3500 -RA BR OVC020/// 11/11 Q1000
LIRN - Napoli/Capodichino, Italy
Distance from station: SE 120km
Dati ricevuti: 12/11/2019 07:20
Parz. nuvoloso
Parz. nuvoloso
 Vento da NNE
Vento: NNE 13 km/h
Temperatura: 16°C
P.to Rugiada: 10°C
Umidità: 68%
Barometro: 993 hPa
Clouds: Parz. nuvoloso
Visibility: 10 km
Cloud details: Parz. nuvoloso 1829 m
2019/11/12 06:20 LIRN 120620Z 02007KT 9999 SCT060 16/10 Q0993 NOSIG
 
LIRV - Viterbo (it-Mil), Italy
Distance from station: NO 133km
Dati ricevuti: 12/11/2019 06:55
Parz. nuvoloso
Parz. nuvoloso
 Vento da varies
Vento: varies 0 km/h
Temperatura: 11°C
P.to Rugiada: 8°C
Umidità: 82%
Barometro: 1018 hPa
Clouds: Parz. nuvoloso
Visibility: 10 km
Cloud details: Few Clouds 610 m
Parz. nuvoloso 1067 m
2019/11/12 05:55 LIRV 120555Z /////KT 9999 FEW020 SCT035 11/08 Q1018
LIQC - Capri, Italy
Distance from station: SSE 145km
Dati ricevuti: 12/11/2019 06:55
Molto nuvoloso
Molto nuvoloso
 Vento da E
Vento: E 37 km/h
Temperatura: 18°C
P.to Rugiada: 10°C
Umidità: 60%
Barometro: 992 hPa
Clouds: Molto nuvoloso
Visibility: 10 km
Cloud details: Parz. nuvoloso 610 m
Molto nuvoloso 792 m
2019/11/12 05:55 LIQC 120555Z 08020KT 9999 SCT020 BKN026 18/10 Q0992 RMK OVC QUK 4 QUL 3 SE VIS MAR 10 KM VIS MIN 9999
 
LIRT - Trevico, Italy
Distance from station: ESE 172km
Dati ricevuti: 12/11/2019 06:55
Pioviggine, Nebbia
Pioviggine, Nebbia
 Vento da ESE
Vento: ESE 20 km/h
Temperatura: 6°C
Temperatura del Vento: 2°C
P.to Rugiada: 4°C
Umidità: 87%
Barometro: 1000 hPa
Summary: Pioviggine, Nebbia
Visibility: 0 km
2019/11/12 05:55 LIRT 120555Z 12011KT 0000 -RA FG VV/// 06/04 Q1000 RMK MON INVIS VAL INVIS VIS MIN 0000
LIRZ - Perugia, Italy
Distance from station: NNO 172km
Dati ricevuti: 12/11/2019 05:50
Non Attivo
Molto nuvoloso
Molto nuvoloso
 Vento da NNO
Vento: NNO 11 km/h
Temperatura: 11°C
P.to Rugiada: 10°C
Umidità: 94%
Barometro: 1000 hPa
Clouds: Molto nuvoloso
Visibility: 10 km
Cloud details: Molto nuvoloso 2225 m
Molto nuvoloso 4877 m
2019/11/12 04:50 LIRZ 120450Z AUTO 34006KT 9999 BKN073/// BKN160/// 11/10 Q1000
 
LIRI - Pontecagnano (af, Italy
Distance from station: SE 177km
Dati ricevuti: 11/11/2019 16:50
Non Attivo
Parz. nuvoloso
Parz. nuvoloso
 Vento da NE
Vento: NE 6 km/h
Temperatura: 17°C
P.to Rugiada: 10°C
Umidità: 64%
Barometro: 1008 hPa
Clouds: Parz. nuvoloso
Visibility: 10 km
Cloud details: Parz. nuvoloso 762 m
2019/11/11 15:50 LIRI 111550Z 05003KT 9999 SCT025 17/10 Q1008
LIBF - Foggia/Gino Lisa, Italy
Distance from station: E 183km
Dati ricevuti: 11/11/2019 15:50
Non Attivo
Sereno
Sereno
 Vento da E
Vento: E 15 km/h
Temperatura: 17°C
P.to Rugiada: 14°C
Umidità: 83%
Barometro: 1010 hPa
Summary: Sereno
Visibility: greater than 10 km
2019/11/11 14:50 LIBF 111450Z 08008KT CAVOK 17/14 Q1010
 
LIQO - Monte Argentario, Italy
Distance from station: ONO 195km
Dati ricevuti: 11/11/2019 18:55
Non Attivo
Nebbia
Nebbia
 Vento da E
Vento: E 24 km/h
Temperatura: 10°C
Temperatura del Vento: 7°C
P.to Rugiada: 10°C
Umidità: 100%
Barometro: 1006 hPa
Summary: Nebbia
Visibility: 0 km
2019/11/11 17:55 LIQO 111755Z 10013KT 0000 FG VV/// 10/10 Q1006 RMK VAL INVIS NC VIS MIN 0000
LIBA - Amendola (it-Afb, Italy
Distance from station: E 198km
Dati ricevuti: 12/11/2019 06:55
Pioviggine, Mist, Nuvoloso
Pioviggine, Mist, Nuvoloso
 Vento da E
Vento: E 13 km/h
Temperatura: 14°C
P.to Rugiada: 13°C
Umidità: 94%
Barometro: 1000 hPa
Summary: Pioviggine, Mist
Clouds: Molto nuvoloso
Visibility: 4 km
Cloud details: Parz. nuvoloso 610 m
Molto nuvoloso 762 m
2019/11/12 05:55 LIBA 120555Z 08007KT 3500 -RA BR SCT020 BKN025 14/13 Q1000 RMK OVC VIS MIN 3500 WIND THR11 08010KT WIND THR29 /////KT YLO
 
LIBN - Lecce (it-Afb), Italy
Dati ricevuti: 12/11/2019 06:55
Temporale, Few clouds
Temporale, Few clouds
 Vento da SE
Vento: SE 43 km/h, Raffica: 67 km/h
Temperatura: 20°C
P.to Rugiada: 15°C
Umidità: 73%
Barometro: 1000 hPa
Summary: Temporale
Clouds: Few Clouds
Visibility: 10 km
Cloud details: Parz. nuvoloso 549 m
Few Clouds 762 m
2019/11/12 05:55 LIBN 120555Z 13023G36KT 9999 TS SCT018 FEW025CB 20/15 Q1000 RMK BKN BKN080 VIS MIN 9999 WIND THR14 13025G39KT WIND THR32 13026G36KT BLU
LIPY - Ancona-Falconara, Italy
Dati ricevuti: 12/11/2019 06:55
Pioviggine, Mist, Nuvoloso
Pioviggine, Mist, Nuvoloso
 Vento da varies
Vento: varies 2 km/h
Temperatura: 12°C
P.to Rugiada: 12°C
Umidità: 100%
Barometro: 1001 hPa
Summary: Pioviggine, Mist
Clouds: Molto nuvoloso
Visibility: 3 km
Cloud details: Molto nuvoloso 305 m
2019/11/12 05:55 LIPY 120555Z VRB01KT 3000 -RA BR BKN010 12/12 Q1001 RERA
 
LICJ - Palermo-Punta Raisi, Italy
Dati ricevuti: 12/11/2019 07:20
Parz. nuvoloso
Parz. nuvoloso
 Vento da SSO
Vento: SSO 11 km/h
Temperatura: 15°C
P.to Rugiada: 13°C
Umidità: 88%
Barometro: 992 hPa
Clouds: Parz. nuvoloso
Visibility: 10 km
Cloud details: Parz. nuvoloso 914 m
Parz. nuvoloso 2134 m
2019/11/12 06:20 LICJ 120620Z 21006KT 150V240 9999 SCT030 SCT070 15/13 Q0992
LIEB - Capo Bellavista, Italy
Dati ricevuti: 12/11/2019 06:55
Parz. nuvoloso
Parz. nuvoloso
 Vento da NNO
Vento: NNO 33 km/h
Temperatura: 14°C
P.to Rugiada: 8°C
Umidità: 67%
Barometro: 995 hPa
Clouds: Parz. nuvoloso
Visibility: 10 km
Cloud details: Parz. nuvoloso 914 m
2019/11/12 05:55 LIEB 120555Z 34018KT 9999 SCT030 14/08 Q0995 RMK OVC OVC080 QUK 3 QUL 0 VIS MAR 14 KM MON INVIS VIS MIN 9999
 
LIEC - Capo Carbonara, Italy
Dati ricevuti: 12/11/2019 06:55
Pioviggine, Parz. nuvoloso
Pioviggine, Parz. nuvoloso
 Vento da NNO
Vento: NNO 19 km/h
Temperatura: 13°C
P.to Rugiada: 11°C
Umidità: 88%
Barometro: 996 hPa
Summary: Pioviggine
Clouds: Parz. nuvoloso
Visibility: 10 km
Cloud details: Parz. nuvoloso 610 m
2019/11/12 05:55 LIEC 120555Z 34010KT 9999 -RA SCT020 13/11 Q0996 RMK OVC BKN070 OVC080 QUK / QUL / VIS MAR 16 KM VIS MIN 9999
LIED - Cagliari-Decimomannu(It-A, Italy
Dati ricevuti: 12/11/2019 06:55
Parz. nuvoloso
Parz. nuvoloso
 Vento da N
Vento: N 9 km/h
Temperatura: 11°C
P.to Rugiada: 8°C
Umidità: 82%
Barometro: 996 hPa
Clouds: Parz. nuvoloso
Visibility: 10 km
Cloud details: Few Clouds 366 m
Parz. nuvoloso 1829 m
2019/11/12 05:55 LIED 120555Z 36005KT 9999 FEW012 SCT060 11/08 Q0996 RMK OVC BKN070 VIS MIN 9999 WIND THR35 36005KT WIND THR17 /////KT BLU
 
LIEE - Cagliari-Elmas(A, Italy
Dati ricevuti: 12/11/2019 07:20
Pioviggine, Few clouds
Pioviggine, Few clouds
 Vento da varies
Vento: varies 2 km/h
Temperatura: 11°C
P.to Rugiada: 9°C
Umidità: 88%
Barometro: 997 hPa
Summary: Pioviggine
Clouds: Few Clouds
Visibility: 10 km
Cloud details: Few Clouds 1829 m
2019/11/12 06:20 LIEE 120620Z VRB01KT 9999 -RA FEW060 11/09 Q0997
LIEO - Olbia-Costa Smeralda, Italy
Dati ricevuti: 12/11/2019 07:20
Pioviggine, Nuvoloso
Pioviggine, Nuvoloso
 Vento da NNO
Vento: NNO 13 km/h
Temperatura: 15°C
P.to Rugiada: 12°C
Umidità: 82%
Barometro: 998 hPa
Summary: Pioviggine
Clouds: Molto nuvoloso
Visibility: 10 km
Cloud details: Parz. nuvoloso 457 m
Molto nuvoloso 914 m
2019/11/12 06:20 LIEO 120620Z 34007KT 9999 -RA SCT015 BKN030 15/12 Q0998
 
LIEA - Alghero, Italy
Dati ricevuti: 12/11/2019 07:20
Pioviggine, Showers, Nuvoloso
Pioviggine, Showers, Nuvoloso
 Vento da NE
Vento: NE 22 km/h
Temperatura: 15°C
P.to Rugiada: 12°C
Umidità: 82%
Barometro: 998 hPa
Summary: Pioviggine, Showers
Clouds: Molto nuvoloso
Visibility: 10 km
Cloud details: Molto nuvoloso 914 m
2019/11/12 06:20 LIEA 120620Z 04012KT 9999 -SHRA BKN030 15/12 Q0998 RESHRA
LICA - Catanzaro-Lamezia Terme, Italy
Dati ricevuti: 12/11/2019 07:31
Light thunderstorm, Pioggia, Nuvoloso
Light thunderstorm, Pioggia, Nuvoloso
 Vento da SSO
Vento: SSO 15 km/h
Temperatura: 16°C
P.to Rugiada: 16°C
Umidità: 100%
Barometro: 997 hPa
Summary: Light thunderstorm, Pioggia
Clouds: Molto nuvoloso
Visibility: 10 km
Cloud details: Few Clouds 305 m
Molto nuvoloso 914 m
2019/11/12 06:31 LICA 120631Z 20008KT 170V240 9999 -TSRA FEW010CB BKN030 16/16 Q0997 RERA
 
LIBQ - Cosenza-Monte Scuro, Italy
Dati ricevuti: 12/11/2019 06:55
Thunderstorm rain, Mist, Nuvoloso
Thunderstorm rain, Mist, Nuvoloso
 Vento da SE
Vento: SE 54 km/h
Temperatura: 9°C
Temperatura del Vento: 4°C
P.to Rugiada: 8°C
Umidità: 94%
Barometro: 998 hPa
Summary: Thunderstorm rain, Mist
Clouds: Molto nuvoloso
Visibility: 3 km
Cloud details: Few Clouds 61 m
Parz. nuvoloso 122 m
Molto nuvoloso 213 m
2019/11/12 05:55 LIBQ 120555Z 13029KT 3000 TSRA BR FEW002 SCT004CB BKN007 09/08 Q0998 RMK OVC MON LIB VAL W NW MAR CLD VIS MIN 3000
LICR - Reggio Calabria, Italy
Dati ricevuti: 12/11/2019 06:58
Pioviggine, Showers, Parz. nuvoloso
Pioviggine, Showers, Parz. nuvoloso
 Vento da SSE
Vento: SSE 22 km/h
Temperatura: 16°C
P.to Rugiada: 14°C
Umidità: 88%
Barometro: 997 hPa
Summary: Pioviggine, Showers
Clouds: Parz. nuvoloso
Visibility: 8 km
Cloud details: Few Clouds 610 m
Parz. nuvoloso 1829 m
2019/11/12 05:58 LICR 120558Z 16012KT 8000 -SHRA FEW020 SCT060 16/14 Q0997 RERA
 
LIBV - Bari-Gioia Del Colle, Italy
Dati ricevuti: 12/11/2019 07:23
Pioviggine, Nuvoloso
Pioviggine, Nuvoloso
 Vento da E
Vento: E 26 km/h
Temperatura: 15°C
P.to Rugiada: 15°C
Umidità: 100%
Barometro: 997 hPa
Summary: Pioviggine
Clouds: Molto nuvoloso
Visibility: 6 km
Cloud details: Few Clouds 244 m
Parz. nuvoloso 610 m
Molto nuvoloso 1219 m
2019/11/12 06:23 LIBV 120623Z 08014KT 6000 -RA FEW008 SCT020 BKN040 15/15 Q0997 RETS RMK OVC VIS MIN 6000 WIND THR32 08013KT WIND THR14 08014KT WHT
LIBD - Bari-Palese Macchie, Italy
Dati ricevuti: 12/11/2019 07:20
Thunderstorm rain, Nuvoloso
Thunderstorm rain, Nuvoloso
 Vento da SE
Vento: SE 15 km/h
Temperatura: 16°C
P.to Rugiada: 15°C
Umidità: 94%
Barometro: 999 hPa
Summary: Thunderstorm Rain
Clouds: Molto nuvoloso
Visibility: 6 km
Cloud details: Few Clouds 213 m
Parz. nuvoloso 366 m
Molto nuvoloso 1067 m
2019/11/12 06:20 LIBD 120620Z 13008KT 6000 TSRA FEW007 SCT012CB BKN035 16/15 Q0999 R07/290394
 
LIBR - Brindisi-Casale, Italy
Dati ricevuti: 12/11/2019 07:20
Light thunderstorm, Pioggia, Parz. nuvoloso
Light thunderstorm, Pioggia, Parz. nuvoloso
 Vento da SE
Vento: SE 35 km/h
Temperatura: 21°C
P.to Rugiada: 15°C
Umidità: 69%
Barometro: 999 hPa
Summary: Light thunderstorm, Pioggia
Clouds: Parz. nuvoloso
Visibility: 8 km
Cloud details: Few Clouds 610 m
Parz. nuvoloso 1219 m
2019/11/12 06:20 LIBR 120620Z 13019KT 8000 -TSRA FEW020CB SCT040 21/15 Q0999
LIRT - Trevico, Italy
Dati ricevuti: 12/11/2019 06:55
Pioviggine, Nebbia
Pioviggine, Nebbia
 Vento da ESE
Vento: ESE 20 km/h
Temperatura: 6°C
Temperatura del Vento: 2°C
P.to Rugiada: 4°C
Umidità: 87%
Barometro: 1000 hPa
Summary: Pioviggine, Nebbia
Visibility: 0 km
2019/11/12 05:55 LIRT 120555Z 12011KT 0000 -RA FG VV/// 06/04 Q1000 RMK MON INVIS VAL INVIS VIS MIN 0000
 
LICB - Comiso, Italy
Dati ricevuti: 12/11/2019 06:50
Pioggia, Nuvoloso
Pioggia, Nuvoloso
 Vento da SSO
Vento: SSO 20 km/h
Temperatura: 13°C
P.to Rugiada: 11°C
Umidità: 88%
Barometro: 996 hPa
Summary: Pioggia
Clouds: Molto nuvoloso
Visibility: 7 km
Cloud details: Molto nuvoloso 305 m
2019/11/12 05:50 LICB 120550Z AUTO 20011KT 160V230 7000 RA BKN010/// 13/11 Q0996
LICL - Gela, Italy
Dati ricevuti: 12/11/2019 06:55
Pioviggine, Nuvoloso
Pioviggine, Nuvoloso
 Vento da SSO
Vento: SSO 35 km/h, Raffica: 54 km/h
Temperatura: 15°C
P.to Rugiada: 12°C
Umidità: 82%
Barometro: 995 hPa
Summary: Pioviggine
Clouds: Molto nuvoloso
Visibility: 10 km
Cloud details: Molto nuvoloso 518 m
2019/11/12 05:55 LICL 120555Z 21019G29KT 170V240 9999 -RA BKN017 15/12 Q0995 RMK OVC OVC060 QUK 3 QUL 0 VIS MAR 0 M VIS MIN 9999
 
LIBN - Lecce (it-Afb), Italy
Dati ricevuti: 12/11/2019 06:55
Temporale, Few clouds
Temporale, Few clouds
 Vento da SE
Vento: SE 43 km/h, Raffica: 67 km/h
Temperatura: 20°C
P.to Rugiada: 15°C
Umidità: 73%
Barometro: 1000 hPa
Summary: Temporale
Clouds: Few Clouds
Visibility: 10 km
Cloud details: Parz. nuvoloso 549 m
Few Clouds 762 m
2019/11/12 05:55 LIBN 120555Z 13023G36KT 9999 TS SCT018 FEW025CB 20/15 Q1000 RMK BKN BKN080 VIS MIN 9999 WIND THR14 13025G39KT WIND THR32 13026G36KT BLU
LICJ - Palermo-Punta Raisi, Italy
Dati ricevuti: 12/11/2019 07:20
Parz. nuvoloso
Parz. nuvoloso
 Vento da SSO
Vento: SSO 11 km/h
Temperatura: 15°C
P.to Rugiada: 13°C
Umidità: 88%
Barometro: 992 hPa
Clouds: Parz. nuvoloso
Visibility: 10 km
Cloud details: Parz. nuvoloso 914 m
Parz. nuvoloso 2134 m
2019/11/12 06:20 LICJ 120620Z 21006KT 150V240 9999 SCT030 SCT070 15/13 Q0992
 
LICZ - Catania-Sigonella (nas), Italy
Dati ricevuti: 12/11/2019 06:55
Pioviggine, Nuvoloso
Pioviggine, Nuvoloso
 Vento da ENE
Vento: ENE 11 km/h
Temperatura: 15°C
P.to Rugiada: 14°C
Umidità: 94%
Barometro: 996 hPa
Summary: Pioviggine
Clouds: Molto nuvoloso
Visibility: 7 km
Cloud details: Parz. nuvoloso 610 m
Molto nuvoloso 2134 m
2019/11/12 05:55 LICZ 120555Z 06006KT 7000 -RA SCT020 BKN070 15/14 Q0996 RMK OVC VIS MIN 7000 WIND THR28 07006KT WIND THR10 /////KT A2942 WHT
LICC - Catania-Fontanarossa, Italy
Dati ricevuti: 12/11/2019 07:20
Molto nuvoloso
Molto nuvoloso
 Vento da ENE
Vento: ENE 6 km/h
Temperatura: 16°C
P.to Rugiada: 14°C
Umidità: 88%
Barometro: 996 hPa
Clouds: Molto nuvoloso
Visibility: 10 km
Cloud details: Few Clouds 610 m
Molto nuvoloso 2134 m
2019/11/12 06:20 LICC 120620Z 07003KT 330V130 9999 FEW020 BKN070 16/14 Q0996 RERA
 
LICT - Trapani-Birgi (a, Italy
Dati ricevuti: 12/11/2019 07:27
Pioviggine, Parz. nuvoloso
Pioviggine, Parz. nuvoloso
 Vento da E
Vento: E 15 km/h
Temperatura: 14°C
P.to Rugiada: 12°C
Umidità: 88%
Barometro: 992 hPa
Summary: Pioviggine
Clouds: Parz. nuvoloso
Visibility: 2 km
Cloud details: Few Clouds 457 m
Parz. nuvoloso 671 m
2019/11/12 06:27 LICT 120627Z 09008KT 1500 -RA FEW015 SCT022 14/12 Q0992
LICD - Agrigento-Lampedusa, Italy
Dati ricevuti: 12/11/2019 06:50
Funnel cloud, Tornado, Or waterspout, Nuvoloso
Funnel cloud, Tornado, Or waterspout, Nuvoloso
 Vento da SSO
Vento: SSO 35 km/h
Temperatura: 15°C
P.to Rugiada: 10°C
Umidità: 72%
Barometro: 994 hPa
Summary: Funnel cloud, Tornado, Or waterspout
Clouds: Molto nuvoloso
Visibility: 10 km
Cloud details: Molto nuvoloso 914 m
2019/11/12 05:50 LICD 120550Z 21019KT 9999 FC BKN030 15/10 Q0994
 
LICG - Pantelleria(It-A, Italy
Dati ricevuti: 12/11/2019 06:50
Parz. nuvoloso
Parz. nuvoloso
 Vento da SSE
Vento: SSE 7 km/h
Temperatura: 12°C
P.to Rugiada: 11°C
Umidità: 94%
Barometro: 994 hPa
Clouds: Parz. nuvoloso
Visibility: 10 km
Cloud details: Few Clouds 457 m
Parz. nuvoloso 1219 m
2019/11/12 05:50 LICG 120550Z 15004KT 9999 FEW015 SCT040 12/11 Q0994
LIPX - Villafranca(Cv/M, Italy
Dati ricevuti: 12/11/2019 07:20
Molto nuvoloso
Molto nuvoloso
 Vento da varies
Vento: varies 4 km/h
Temperatura: 8°C
P.to Rugiada: 8°C
Umidità: 100%
Barometro: 1003 hPa
Clouds: Molto nuvoloso
Visibility: 7 km
Cloud details: Parz. nuvoloso 914 m
Molto nuvoloso 1524 m
2019/11/12 06:20 LIPX 120620Z VRB02KT 7000 SCT030 BKN050 08/08 Q1003
 
LIPO - Brescia/Montichiari, Italy
Dati ricevuti: 12/11/2019 06:50
Pioggia, Nuvoloso
Pioggia, Nuvoloso
 Vento da O
Vento: O 13 km/h
Temperatura: 8°C
Temperatura del Vento: 6°C
P.to Rugiada: 8°C
Umidità: 100%
Barometro: 1004 hPa
Summary: Pioggia
Clouds: Molto nuvoloso
Visibility: 6 km
Cloud details: Molto nuvoloso 457 m
2019/11/12 05:50 LIPO 120550Z 27007KT 6000 RA BKN015 08/08 Q1004
LIPL - Ghedi (it-Afb), Italy
Dati ricevuti: 12/11/2019 06:55
Pioviggine, Mist, Parz. nuvoloso
Pioviggine, Mist, Parz. nuvoloso
 Vento da O
Vento: O 9 km/h
Temperatura: 9°C
Temperatura del Vento: 7°C
P.to Rugiada: 6°C
Umidità: 82%
Barometro: 1004 hPa
Summary: Pioviggine, Mist
Clouds: Parz. nuvoloso
Visibility: 3 km
Cloud details: Parz. nuvoloso 914 m
Parz. nuvoloso 1219 m
2019/11/12 05:55 LIPL 120555Z 26005KT 3000 -RA BR SCT030 SCT040 09/06 Q1004 RMK OVC VIS MIN 3000 WIND THR31 26006KT WIND THR13 26006KT YLO
 
LIMP - Parma, Italy
Dati ricevuti: 05/11/2019 22:50
Non Attivo
Parz. nuvoloso
Parz. nuvoloso
 Vento da NO
Vento: NO 11 km/h
Temperatura: 12°C
P.to Rugiada: 12°C
Umidità: 100%
Barometro: 998 hPa
Clouds: Parz. nuvoloso
Visibility: 6 km
Cloud details: Parz. nuvoloso 1219 m
2019/11/05 21:50 LIMP 052150Z 31006KT 6000 SCT040 12/12 Q0998
LIMS - Piacenza (it-Afb, Italy
Dati ricevuti: 12/11/2019 06:55
Molto nuvoloso
Molto nuvoloso
 Vento da varies
Vento: varies 0 km/h
Temperatura: 8°C
P.to Rugiada: 8°C
Umidità: 100%
Barometro: 1004 hPa
Clouds: Molto nuvoloso
Visibility: 6 km
Cloud details: Parz. nuvoloso 427 m
Molto nuvoloso 610 m
2019/11/12 05:55 LIMS 120555Z /////KT 6000 SCT014 BKN020 08/08 Q1004
 
LIPF - Ferrara (aut), Italy
Dati ricevuti: 12/11/2019 06:55
Light drizzle, Mist, Nuvoloso
Light drizzle, Mist, Nuvoloso
 Vento da calm
Vento: Calma
Temperatura: 9°C
P.to Rugiada: 8°C
Umidità: 94%
Barometro: 1003 hPa
Summary: Light drizzle, Mist
Clouds: Molto nuvoloso
Visibility: 2 km
Cloud details: Parz. nuvoloso 762 m
Molto nuvoloso 914 m
2019/11/12 05:55 LIPF 120555Z 00000KT 2000 -DZ BR SCT025 BKN030 09/08 Q1003
LIPE - Bologna/Borgo (a, Italy
Dati ricevuti: 12/11/2019 07:20
Light drizzle, Mist, Nuvoloso
Light drizzle, Mist, Nuvoloso
 Vento da O
Vento: O 17 km/h
Temperatura: 8°C
Temperatura del Vento: 5°C
P.to Rugiada: 8°C
Umidità: 100%
Barometro: 1003 hPa
Summary: Light drizzle, Mist
Clouds: Molto nuvoloso
Visibility: 2 km
Cloud details: Molto nuvoloso 61 m
Molto nuvoloso 122 m
2019/11/12 06:20 LIPE 120620Z 27009KT 1600 -DZ BR BKN002 BKN004 08/08 Q1003
 
LIPU - Padova (civ/It-A, Italy
Dati ricevuti: 10/11/2019 08:00
Non Attivo
Sereno
Sereno
 Vento da varies
Vento: varies 6 km/h
Temperatura: 5°C
P.to Rugiada: 5°C
Umidità: 100%
Barometro: 1008 hPa
Summary: Sereno
Visibility: greater than 10 km
2019/11/10 07:00 LIPU 100700Z VRB03KT CAVOK 05/05 Q1008
LIME - Bergamo/Orio Ser, Italy
Dati ricevuti: 12/11/2019 07:20
Pioviggine, Nuvoloso
Pioviggine, Nuvoloso
 Vento da varies
Vento: varies 2 km/h
Temperatura: 7°C
P.to Rugiada: 7°C
Umidità: 100%
Barometro: 1004 hPa
Summary: Pioviggine
Clouds: Molto nuvoloso
Visibility: 6 km
Cloud details: Molto nuvoloso 762 m
2019/11/12 06:20 LIME 120620Z VRB01KT 6000 -RA BKN025 07/07 Q1004 NOSIG
 
LIMT - Cisa Pass, Italy
Dati ricevuti: 23/09/2019 13:55
Non Attivo
Nebbia
Nebbia
 Vento da calm
Vento: Calma
Temperatura: 10°C
P.to Rugiada: 10°C
Umidità: 100%
Barometro: 1014 hPa
Summary: Nebbia
Visibility: 0 km
2019/09/23 11:55 LIMT 231155Z 00000KT 0000 FG VV/// 10/10 Q1014 RMK MON INVIS VAL INVIS VIS MIN 0000
LIVC - Cimone Mountain, Italy
Dati ricevuti: 08/11/2019 08:55
Non Attivo
Light snow, Nebbia
Light snow, Nebbia
 Vento da SO
Vento: SO 15 km/h
Temperatura: 0°C
Temperatura del Vento: -4°C
P.to Rugiada: 0°C
Umidità: 100%
Barometro: 1002 hPa
Summary: Light snow, Nebbia
Visibility: 0 km
2019/11/08 07:55 LIVC 080755Z 22008KT 0000 -SN FG VV/// 00/00 Q1002 RMK MON INVIS VAL INVIS VIS MIN 0000
 
LIVP - Paganella Mounta, Italy
Dati ricevuti: 12/11/2019 06:55
Light snow, Freezing, Nebbia
Light snow, Freezing, Nebbia
 Vento da S
Vento: S 13 km/h
Temperatura: -1°C
Temperatura del Vento: -6°C
P.to Rugiada: -2°C
Umidità: 93%
Barometro: 1003 hPa
Summary: Light snow, Freezing, Nebbia
Visibility: 0 km
2019/11/12 05:55 LIVP 120555Z 17007KT 0000 -SN FZFG VV/// M01/M02 Q1003 RMK MON INVIS VAL INVIS VIS MIN 0000
LIML - Milano/Linate, Italy
Dati ricevuti: 12/11/2019 07:20
Pioviggine, Nuvoloso
Pioviggine, Nuvoloso
 Vento da O
Vento: O 4 km/h
Temperatura: 8°C
P.to Rugiada: 7°C
Umidità: 93%
Barometro: 1005 hPa
Summary: Pioviggine
Clouds: Molto nuvoloso
Visibility: 9 km
Cloud details: Parz. nuvoloso 244 m
Molto nuvoloso 914 m
2019/11/12 06:20 LIML 120620Z 26002KT 9000 -RA SCT008 BKN030 08/07 Q1005 NOSIG
 
LIPS - Istrana (it-Afb), Italy
Dati ricevuti: 12/11/2019 06:55
Pioviggine, Mist, Nuvoloso
Pioviggine, Mist, Nuvoloso
 Vento da varies
Vento: varies 0 km/h
Temperatura: 11°C
P.to Rugiada: 10°C
Umidità: 94%
Barometro: 1004 hPa
Summary: Pioviggine, Mist
Clouds: Molto nuvoloso
Visibility: 5 km
Cloud details: Molto nuvoloso 762 m
Molto nuvoloso 1829 m
2019/11/12 05:55 LIPS 120555Z /////KT 5000 -RA BR BKN025 BKN060 11/10 Q1004 RMK OVC VIS MIN 5000 WIND THR26 02008KT WIND THR08 06008KT WHT
LIPH - Treviso(Civ/It-A, Italy
Dati ricevuti: 12/11/2019 07:20
Pioggia, Nuvoloso
Pioggia, Nuvoloso
 Vento da NNE
Vento: NNE 13 km/h
Temperatura: 11°C
P.to Rugiada: 10°C
Umidità: 94%
Barometro: 1004 hPa
Summary: Pioggia
Clouds: Molto nuvoloso
Visibility: 10 km
Cloud details: Molto nuvoloso 610 m
2019/11/12 06:20 LIPH 120620Z 03007KT 360V060 9999 RA BKN020 11/10 Q1004
 
LIPZ - Venezia/Tessera, Italy
Dati ricevuti: 12/11/2019 07:20
Pioviggine, Nuvoloso
Pioviggine, Nuvoloso
 Vento da NE
Vento: NE 22 km/h
Temperatura: 10°C
Temperatura del Vento: 7°C
P.to Rugiada: 10°C
Umidità: 100%
Barometro: 1003 hPa
Summary: Pioviggine
Clouds: Molto nuvoloso
Visibility: 10 km
Cloud details: Parz. nuvoloso 610 m
Molto nuvoloso 1219 m
2019/11/12 06:20 LIPZ 120620Z 04012KT 9999 -RA SCT020 BKN040 10/10 Q1003 RERA NOSIG
LIQW - Sarzana/Luni, Italy
Dati ricevuti: 11/11/2019 15:55
Non Attivo
Parz. nuvoloso
Parz. nuvoloso
 Vento da varies
Vento: varies 0 km/h
Temperatura: 14°C
P.to Rugiada: 11°C
Umidità: 82%
Barometro: 1008 hPa
Clouds: Parz. nuvoloso
Visibility: 10 km
Cloud details: Parz. nuvoloso 1219 m
2019/11/11 14:55 LIQW 111455Z /////KT 9999 SCT040 14/11 Q1008
 
LIVR - Rolle Pass, Italy
Dati ricevuti: 11/11/2019 18:55
Non Attivo
Light snow, Freezing, Nebbia
Light snow, Freezing, Nebbia
 Vento da SSE
Vento: SSE 17 km/h
Temperatura: -1°C
Temperatura del Vento: -6°C
P.to Rugiada: -3°C
Umidità: 86%
Barometro: 1009 hPa
Summary: Light snow, Freezing, Nebbia
Visibility: 0 km
2019/11/11 17:55 LIVR 111755Z 16009KT 0100 -SN FZFG VV/// M01/M03 Q1009 RMK MON INVIS VIS MIN 0100
LIPK - Forli (civ/It-Af, Italy
Dati ricevuti: 11/11/2019 17:50
Non Attivo
Mist, Nuvoloso
Mist, Nuvoloso
 Vento da NO
Vento: NO 7 km/h
Temperatura: 9°C
Temperatura del Vento: 8°C
P.to Rugiada: 7°C
Umidità: 87%
Barometro: 1011 hPa
Summary: Mist
Clouds: Molto nuvoloso
Visibility: 3 km
Cloud details: Parz. nuvoloso 244 m
Molto nuvoloso 610 m
2019/11/11 16:50 LIPK 111650Z 31004KT 2500 BR SCT008 BKN020 09/07 Q1011
 
LIMV - Giovi Pass, Italy
Dati ricevuti: 11/11/2019 18:55
Non Attivo
Pioviggine, Patches of, Nebbia, Parz. nuvoloso
Pioviggine, Patches of, Nebbia, Parz. nuvoloso
 Vento da varies
Vento: varies 0 km/h
Temperatura: 5°C
P.to Rugiada: 5°C
Umidità: 100%
Barometro: 1009 hPa
Summary: Pioviggine, Patches of, Nebbia
Clouds: Parz. nuvoloso
Visibility: 7 km
Cloud details: Molto nuvoloso 91 m
Parz. nuvoloso 244 m
2019/11/11 17:55 LIMV 111755Z /////KT 7000 0800N -RA BCFG BKN003 SCT008 05/05 Q1009 RMK OVC MON N INVIS S GEN INC VAL N INVIS S FOSCHIA VIS MIN 0800N
LIPB - Bolzano(Civ/It-A, Italy
Dati ricevuti: 12/11/2019 06:50
Pioggia, Nuvoloso
Pioggia, Nuvoloso
 Vento da varies
Vento: varies 2 km/h
Temperatura: 4°C
P.to Rugiada: 3°C
Umidità: 93%
Barometro: 1008 hPa
Summary: Pioggia
Clouds: Molto nuvoloso
Visibility: 7 km
Cloud details: Parz. nuvoloso 91 m
Parz. nuvoloso 305 m
Molto nuvoloso 914 m
2019/11/12 05:50 LIPB 120550Z VRB01KT 7000 RA SCT003 SCT010 BKN030 04/03 Q1008
 
LIVD - Bolzano-Dobbiaco, Italy
Dati ricevuti: 12/11/2019 06:55
Pioviggine, Mist, Coperto
Pioviggine, Mist, Coperto
 Vento da varies
Vento: varies 0 km/h
Temperatura: 1°C
P.to Rugiada: 0°C
Umidità: 93%
Barometro: 1007 hPa
Summary: Pioviggine, Mist
Clouds: Coperto
Visibility: 5 km
Cloud details: Coperto 213 m
2019/11/12 05:55 LIVD 120555Z /////KT 5000 -RA BR OVC007 01/00 Q1007 RMK OVC VIS MIN 5000
LIVE - Bolzano-Passo Resia, Italy
Dati ricevuti: 12/11/2019 06:55
Light snow, Mist, Nuvoloso
Light snow, Mist, Nuvoloso
 Vento da NNE
Vento: NNE 9 km/h
Temperatura: -1°C
Temperatura del Vento: -4°C
P.to Rugiada: -2°C
Umidità: 93%
Barometro: 1004 hPa
Summary: Light snow, Mist
Clouds: Molto nuvoloso
Visibility: 2 km
Cloud details: Parz. nuvoloso 152 m
Molto nuvoloso 305 m
2019/11/12 05:55 LIVE 120555Z 03005KT 1600 -SN BR SCT005 BKN010 M01/M02 Q1004 RMK OVC VIS MIN 1600
 
LIMH - Aosta-Pian Rosa (mtn T, Italy
Dati ricevuti: 12/11/2019 06:55
Sereno
Sereno
 Vento da ENE
Vento: ENE 28 km/h
Temperatura: -14°C
Temperatura del Vento: -24°C
P.to Rugiada: -15°C
Umidità: 92%
Barometro: 1001 hPa
Summary: Sereno
Visibility: greater than 10 km
2019/11/12 05:55 LIMH 120555Z 06015KT CAVOK M14/M15 Q1001 RMK SKC MON LIB VAL N MAR CLD VIS MIN 9999
LIMZ - Cuneo/Levaldigi, Italy
Dati ricevuti: 12/11/2019 07:00
Mist, Parz. nuvoloso
Mist, Parz. nuvoloso
 Vento da O
Vento: O 7 km/h
Temperatura: 1°C
Temperatura del Vento: -2°C
P.to Rugiada: 1°C
Umidità: 100%
Barometro: 1005 hPa
Summary: Mist
Clouds: Parz. nuvoloso
Visibility: 4 km
Cloud details: Parz. nuvoloso 3048 m
2019/11/12 06:00 LIMZ 120600Z 26004KT 4000 BR SCT100 01/01 Q1005
 
LIMK - Torino-Bric Della Croce, Italy
Dati ricevuti: 12/11/2019 06:55
Nebbia
Nebbia
 Vento da ONO
Vento: ONO 9 km/h
Temperatura: 4°C
Temperatura del Vento: 2°C
P.to Rugiada: 4°C
Umidità: 100%
Barometro: 1005 hPa
Summary: Nebbia
Visibility: 0 km
2019/11/12 05:55 LIMK 120555Z 30005KT 0100 FG VV/// 04/04 Q1005 RMK VAL INVIS VIS MIN 0100
LIMN - Novara-Cameri (it-Afb), Italy
Dati ricevuti: 12/11/2019 06:55
Molto nuvoloso
Molto nuvoloso
 Vento da ONO
Vento: ONO 9 km/h
Temperatura: 6°C
Temperatura del Vento: 4°C
P.to Rugiada: 5°C
Umidità: 93%
Barometro: 1005 hPa
Clouds: Molto nuvoloso
Visibility: 10 km
Cloud details: Molto nuvoloso 1219 m
2019/11/12 05:55 LIMN 120555Z 30005KT 9999 BKN040 06/05 Q1005 RMK BKN SCT080 VIS MIN 9999 BLU
 
LIPA - Pordenone-Aviano (it/Us-Af, Italy
Dati ricevuti: 12/11/2019 06:55
Pioviggine, Nuvoloso
Pioviggine, Nuvoloso
 Vento da NE
Vento: NE 17 km/h
Temperatura: 11°C
P.to Rugiada: 9°C
Umidità: 88%
Barometro: 1005 hPa
Summary: Pioviggine
Clouds: Molto nuvoloso
Visibility: 8 km
Cloud details: Parz. nuvoloso 914 m
Molto nuvoloso 1372 m
2019/11/12 05:55 LIPA 120555Z 05009KT 8000 -RA SCT030 BKN045 11/09 Q1005 RMK OVC VIS MIN 8000 WIND THR05 /////KT WIND THR23 /////KT A2968 BLU
LIPI - Udine-Rivolto (it-Afb), Italy
Dati ricevuti: 12/11/2019 06:55
Pioggia, Nuvoloso
Pioggia, Nuvoloso
 Vento da N
Vento: N 15 km/h
Temperatura: 10°C
Temperatura del Vento: 8°C
P.to Rugiada: 9°C
Umidità: 94%
Barometro: 1005 hPa
Summary: Pioggia
Clouds: Molto nuvoloso
Visibility: 6 km
Cloud details: Parz. nuvoloso 762 m
Molto nuvoloso 914 m
2019/11/12 05:55 LIPI 120555Z 01008KT 6000 RA SCT025 BKN030 10/09 Q1005 RMK OVC VIS MIN 6000 WIND THR06 05011KT WIND THR24 04008KT WHT
 
LIVO - Udine-Tarvisio, Italy
Dati ricevuti: 12/11/2019 06:55
Pioviggine, Coperto
Pioviggine, Coperto
 Vento da calm
Vento: Calma
Temperatura: 3°C
P.to Rugiada: 2°C
Umidità: 93%
Barometro: 1007 hPa
Summary: Pioviggine
Clouds: Coperto
Visibility: 6 km
Cloud details: Coperto 305 m
2019/11/12 05:55 LIVO 120555Z 00000KT 6000 -RA OVC010 03/02 Q1007 RMK OVC VIS MIN 6000
LIPQ - Trieste-Ronchi Dei Legionari, Italy
Dati ricevuti: 12/11/2019 07:20
Pioviggine, Nuvoloso
Pioviggine, Nuvoloso
 Vento da NNE
Vento: NNE 6 km/h
Temperatura: 11°C
P.to Rugiada: 10°C
Umidità: 94%
Barometro: 1005 hPa
Summary: Pioviggine
Clouds: Molto nuvoloso
Visibility: 7 km
Cloud details: Parz. nuvoloso 1219 m
Molto nuvoloso 1829 m
2019/11/12 06:20 LIPQ 120620Z 03003KT 340V080 7000 -RA SCT040 BKN060 11/10 Q1005 RERA
 
LIVT - Trieste, Italy
Dati ricevuti: 12/11/2019 06:55

 
2019/11/12 05:55 LIVT 120555Z ///12KT 9999 - RA FEW020 SCT030 11/10 Q1004 RMK OVC BKN080 QUK 3 QUL 1 NE VIS MAR 10 KM VIS MIN 9999
LIRQ - Firenze/Peretola, Italy
Dati ricevuti: 12/11/2019 07:20
Few Clouds
Few Clouds
 Vento da SSO
Vento: SSO 6 km/h
Temperatura: 10°C
P.to Rugiada: 10°C
Umidità: 100%
Barometro: 999 hPa
Clouds: Few Clouds
Visibility: 10 km
Cloud details: Few Clouds 61 m
2019/11/12 06:20 LIRQ 120620Z 21003KT 9999 FEW002 10/10 Q0999
 
LIPK - Forli (civ/It-Af, Italy
Dati ricevuti: 11/11/2019 17:50
Non Attivo
Mist, Nuvoloso
Mist, Nuvoloso
 Vento da NO
Vento: NO 7 km/h
Temperatura: 9°C
Temperatura del Vento: 8°C
P.to Rugiada: 7°C
Umidità: 87%
Barometro: 1011 hPa
Summary: Mist
Clouds: Molto nuvoloso
Visibility: 3 km
Cloud details: Parz. nuvoloso 244 m
Molto nuvoloso 610 m
2019/11/11 16:50 LIPK 111650Z 31004KT 2500 BR SCT008 BKN020 09/07 Q1011
LIRS - Grosseto (it-Afb, Italy
Dati ricevuti: 12/11/2019 06:55
Few Clouds
Few Clouds
 Vento da NE
Vento: NE 6 km/h
Temperatura: 11°C
P.to Rugiada: 9°C
Umidità: 88%
Barometro: 998 hPa
Clouds: Few Clouds
Visibility: 10 km
Cloud details: Few Clouds 1829 m
2019/11/12 05:55 LIRS 120555Z 04003KT 9999 FEW060 11/09 Q0998
 
LIRP - Pisa (civ/It-Afb, Italy
Dati ricevuti: 12/11/2019 07:15
Molto nuvoloso
Molto nuvoloso
 Vento da OSO
Vento: OSO 4 km/h
Temperatura: 11°C
P.to Rugiada: 11°C
Umidità: 100%
Barometro: 999 hPa
Clouds: Molto nuvoloso
Visibility: 10 km
Cloud details: Molto nuvoloso 1829 m
2019/11/12 06:15 LIRP 120615Z 24002KT 9999 BKN060 11/11 Q0999 NOSIG
LIVF - Frontone, Italy
Dati ricevuti: 12/11/2019 06:55
Pioviggine, Nebbia
Pioviggine, Nebbia
 Vento da O
Vento: O 2 km/h
Temperatura: 10°C
P.to Rugiada: 10°C
Umidità: 100%
Barometro: 1001 hPa
Summary: Pioviggine, Nebbia
Visibility: 0 km
2019/11/12 05:55 LIVF 120555Z 26001KT 0100 -RA FG VV/// 10/10 Q1001 RMK MON INVIS VAL INVIS VIS MIN 0100
 
LIPC - Cervia (it-Afb), Italy
Dati ricevuti: 12/11/2019 06:55
Pioviggine, Mist, Nuvoloso
Pioviggine, Mist, Nuvoloso
 Vento da O
Vento: O 19 km/h
Temperatura: 9°C
Temperatura del Vento: 6°C
P.to Rugiada: 6°C
Umidità: 82%
Barometro: 1003 hPa
Summary: Pioviggine, Mist
Clouds: Molto nuvoloso
Visibility: 3 km
Cloud details: Parz. nuvoloso 91 m
Molto nuvoloso 244 m
2019/11/12 05:55 LIPC 120555Z 28010KT 2600 -RA BR SCT003 BKN008 09/06 Q1003
LIPR - Rimini (civ/It-A, Italy
Dati ricevuti: 12/11/2019 07:20
Pioviggine, Mist, Coperto
Pioviggine, Mist, Coperto
 Vento da O
Vento: O 17 km/h
Temperatura: 9°C
Temperatura del Vento: 7°C
P.to Rugiada: 9°C
Umidità: 100%
Barometro: 1002 hPa
Summary: Pioviggine, Mist
Clouds: Coperto
Visibility: 4 km
Cloud details: Molto nuvoloso 183 m
Coperto 366 m
2019/11/12 06:20 LIPR 120620Z 28009KT 4000 -RA BR BKN006 OVC012 09/09 Q1002 RERERA
 
LIRX - Monte Calamita, Italy
Dati ricevuti: 12/11/2019 06:55
Molto nuvoloso
Molto nuvoloso
 Vento da NNE
Vento: NNE 13 km/h
Temperatura: 10°C
Temperatura del Vento: 8°C
P.to Rugiada: 8°C
Umidità: 88%
Barometro: 998 hPa
Clouds: Molto nuvoloso
Visibility: 10 km
Cloud details: Parz. nuvoloso 610 m
Molto nuvoloso 914 m
2019/11/12 05:55 LIRX 120555Z 03007KT 9999 SCT020 BKN030 10/08 Q0998 RMK OVC VIS MIN 9999 VIS MAR 15 KM
LIVM - Punta Marina/Rav, Italy
Dati ricevuti: 12/11/2019 06:55
Mist, Parz. nuvoloso
Mist, Parz. nuvoloso
 Vento da O
Vento: O 13 km/h
Temperatura: 9°C
Temperatura del Vento: 7°C
P.to Rugiada: 9°C
Umidità: 100%
Barometro: 1003 hPa
Summary: Mist
Clouds: Parz. nuvoloso
Visibility: 5 km
Cloud details: Parz. nuvoloso 305 m
Parz. nuvoloso 610 m
2019/11/12 05:55 LIVM 120555Z 28007KT 230V330 5000 BR SCT010 SCT020 09/09 Q1003 RMK OVC BKN060 QUK 2 QUL 0 VIS MAR 5 KM VIS MIN 5000